Anoka, MN (55303)

3:16 AM CDT on September 02, 2015 (GMT -0500)
Central Park - Trott Brook | | Change Station
CLOSE
Current Station
Personal Weather Station
Location: Ramsey, MN
Elevation: 882 ft
Nearby Weather Stations

Elev 882 ft 45.27 °N, 93.45 °W | Updated 1 second ago

Rain
Rain
73.8 °F
Feels Like 71 °F
N
1.3
Wind Variable Wind from SSW
Gusts 1.3 mph

Today
High -- | Low -- °F
--% Chance of Precip.
Yesterday
High -- | Low -- °F
Precip. -- in
6:36 AM 7:49 PM
Waning Gibbous, 82% visible
Pressure 29.91 in
Visibility 7.0 miles
Clouds Mostly Cloudy 2100 ft
Heat Index 71 °F
Dew Point 72 °F
Humidity 95%
Rainfall 0.18 in
Snow Depth Not available.
UV 0 out of 12
Pollen 9.70 out of 12
Air Quality Not available.
Flu Activity Not available.
METAR KANE 020754Z AUTO 19003KT 7SM RA BKN021 120 24/24 A2991 RMK AO2 P0005
Pressure 29.91 in
Visibility 7.0 miles
Clouds Mostly Cloudy 2100 ft
Heat Index 71 °F
Dew Point 72 °F
Humidity 95%
Rainfall 0.18 in
Snow Depth Not available.
UV 0 out of 12
Pollen 9.70 out of 12
Air Quality Not available.
Flu Activity Not available.
METAR KANE 020754Z AUTO 19003KT 7SM RA BKN021 120 24/24 A2991 RMK AO2 P0005

10-Day Weather Forecast

×

Almanac

Astronomy

Sep. 02, 2015 Rise Set
Actual Time
Civil Twilight
Nautical Twilight
Astronomical Twilight
Moon
Length of Visible Light
Length of Day
Tomorrow will be .
, % of the Moon is Illuminated

Today's Extremes

State Highs State Lows

Community

WunderPhotos

Upload Photos

1,851,727 photos uploaded!

WunderBlogs® & News

Nearby

Air Quality

  Air Quality AQ Index Pollutant
Not available.

Snow Depth

Station Depth Elevation

Earthquake Activity

City Distance Mag. Time & Date
Minimum magnitude displayed is 2.5.

Coastal Water Temperatures

Place Temperature

Stations

Nearby Weather Stations

Station Location Temp. Windchill Dew Point Humidity Wind Precip. Elev Updated Type